sensor_id;sensor_type;location;lat;lon;timestamp;P1;durP1;ratioP1;P2;durP2;ratioP2
8831;SDS011;4452;50.756;4.472;2022-07-29T00:02:12;4.97;;;2.10;;
8831;SDS011;4452;50.756;4.472;2022-07-29T00:04:37;4.15;;;1.73;;
8831;SDS011;4452;50.756;4.472;2022-07-29T00:07:03;4.43;;;1.98;;
8831;SDS011;4452;50.756;4.472;2022-07-29T00:09:29;1.90;;;1.80;;
8831;SDS011;4452;50.756;4.472;2022-07-29T00:11:56;4.18;;;1.98;;
8831;SDS011;4452;50.756;4.472;2022-07-29T00:14:25;12.15;;;2.20;;
8831;SDS011;4452;50.756;4.472;2022-07-29T00:16:51;5.57;;;2.10;;
8831;SDS011;4452;50.756;4.472;2022-07-29T00:19:16;3.80;;;2.08;;
8831;SDS011;4452;50.756;4.472;2022-07-29T00:21:42;7.18;;;2.00;;
8831;SDS011;4452;50.756;4.472;2022-07-29T00:24:08;8.88;;;2.55;;
8831;SDS011;4452;50.756;4.472;2022-07-29T00:26:33;6.88;;;2.22;;
8831;SDS011;4452;50.756;4.472;2022-07-29T00:28:59;4.85;;;2.35;;
8831;SDS011;4452;50.756;4.472;2022-07-29T00:31:27;6.10;;;2.15;;
8831;SDS011;4452;50.756;4.472;2022-07-29T00:33:53;5.68;;;1.90;;
8831;SDS011;4452;50.756;4.472;2022-07-29T00:36:19;12.65;;;2.60;;
8831;SDS011;4452;50.756;4.472;2022-07-29T00:38:46;7.85;;;2.08;;
8831;SDS011;4452;50.756;4.472;2022-07-29T00:41:16;6.75;;;2.10;;
8831;SDS011;4452;50.756;4.472;2022-07-29T00:43:42;4.63;;;1.90;;
8831;SDS011;4452;50.756;4.472;2022-07-29T00:46:08;4.10;;;1.95;;
8831;SDS011;4452;50.756;4.472;2022-07-29T00:48:34;10.70;;;2.13;;
8831;SDS011;4452;50.756;4.472;2022-07-29T00:51:01;12.25;;;2.08;;
8831;SDS011;4452;50.756;4.472;2022-07-29T00:53:29;4.65;;;2.00;;
8831;SDS011;4452;50.756;4.472;2022-07-29T00:55:56;6.32;;;2.10;;
8831;SDS011;4452;50.756;4.472;2022-07-29T00:58:23;4.43;;;2.08;;
8831;SDS011;4452;50.756;4.472;2022-07-29T01:00:49;7.13;;;1.90;;
8831;SDS011;4452;50.756;4.472;2022-07-29T01:03:15;4.10;;;2.08;;
8831;SDS011;4452;50.756;4.472;2022-07-29T01:05:41;3.60;;;2.22;;
8831;SDS011;4452;50.756;4.472;2022-07-29T01:08:10;11.38;;;2.65;;
8831;SDS011;4452;50.756;4.472;2022-07-29T01:10:37;6.38;;;2.28;;
8831;SDS011;4452;50.756;4.472;2022-07-29T01:13:04;7.90;;;2.28;;
8831;SDS011;4452;50.756;4.472;2022-07-29T01:15:30;5.55;;;2.83;;
8831;SDS011;4452;50.756;4.472;2022-07-29T01:18:03;4.82;;;2.22;;
8831;SDS011;4452;50.756;4.472;2022-07-29T01:26:31;7.53;;;2.45;;
8831;SDS011;4452;50.756;4.472;2022-07-29T01:29:18;6.65;;;2.05;;
8831;SDS011;4452;50.756;4.472;2022-07-29T01:32:10;5.75;;;2.10;;
8831;SDS011;4452;50.756;4.472;2022-07-29T01:37:24;5.15;;;2.50;;
8831;SDS011;4452;50.756;4.472;2022-07-29T01:39:55;6.38;;;2.60;;
8831;SDS011;4452;50.756;4.472;2022-07-29T01:45:02;3.47;;;2.13;;
8831;SDS011;4452;50.756;4.472;2022-07-29T01:47:39;5.03;;;2.15;;
8831;SDS011;4452;50.756;4.472;2022-07-29T01:50:11;3.33;;;2.05;;
8831;SDS011;4452;50.756;4.472;2022-07-29T01:55:20;4.53;;;2.08;;
8831;SDS011;4452;50.756;4.472;2022-07-29T01:57:49;5.03;;;2.22;;
8831;SDS011;4452;50.756;4.472;2022-07-29T02:00:16;5.03;;;2.50;;
8831;SDS011;4452;50.756;4.472;2022-07-29T02:02:43;3.97;;;2.45;;
8831;SDS011;4452;50.756;4.472;2022-07-29T02:05:11;6.93;;;2.40;;
8831;SDS011;4452;50.756;4.472;2022-07-29T02:07:40;9.05;;;2.72;;
8831;SDS011;4452;50.756;4.472;2022-07-29T02:10:07;12.40;;;2.55;;
8831;SDS011;4452;50.756;4.472;2022-07-29T02:12:34;6.50;;;2.80;;
8831;SDS011;4452;50.756;4.472;2022-07-29T02:15:02;5.85;;;2.30;;
8831;SDS011;4452;50.756;4.472;2022-07-29T02:17:34;7.75;;;2.63;;
8831;SDS011;4452;50.756;4.472;2022-07-29T02:20:06;5.75;;;2.58;;
8831;SDS011;4452;50.756;4.472;2022-07-29T02:22:33;5.20;;;2.42;;
8831;SDS011;4452;50.756;4.472;2022-07-29T02:25:01;5.70;;;2.15;;
8831;SDS011;4452;50.756;4.472;2022-07-29T02:27:28;5.28;;;2.47;;
8831;SDS011;4452;50.756;4.472;2022-07-29T02:29:54;7.88;;;2.03;;
8831;SDS011;4452;50.756;4.472;2022-07-29T02:32:22;7.40;;;2.38;;
8831;SDS011;4452;50.756;4.472;2022-07-29T02:34:50;5.50;;;2.80;;
8831;SDS011;4452;50.756;4.472;2022-07-29T02:37:17;8.07;;;2.50;;
8831;SDS011;4452;50.756;4.472;2022-07-29T02:39:44;2.70;;;2.03;;
8831;SDS011;4452;50.756;4.472;2022-07-29T02:42:13;7.28;;;2.85;;
8831;SDS011;4452;50.756;4.472;2022-07-29T02:44:42;7.40;;;2.63;;
8831;SDS011;4452;50.756;4.472;2022-07-29T02:50:38;12.80;;;2.72;;
8831;SDS011;4452;50.756;4.472;2022-07-29T02:55:18;5.07;;;2.22;;
8831;SDS011;4452;50.756;4.472;2022-07-29T03:00:29;3.88;;;2.10;;
8831;SDS011;4452;50.756;4.472;2022-07-29T03:02:58;4.63;;;2.60;;
8831;SDS011;4452;50.756;4.472;2022-07-29T03:05:26;5.13;;;2.55;;
8831;SDS011;4452;50.756;4.472;2022-07-29T03:07:54;5.25;;;2.80;;
8831;SDS011;4452;50.756;4.472;2022-07-29T03:10:22;7.43;;;2.70;;
8831;SDS011;4452;50.756;4.472;2022-07-29T03:12:50;6.38;;;2.67;;
8831;SDS011;4452;50.756;4.472;2022-07-29T03:15:16;9.63;;;2.63;;
8831;SDS011;4452;50.756;4.472;2022-07-29T03:17:42;5.72;;;2.70;;
8831;SDS011;4452;50.756;4.472;2022-07-29T03:20:09;3.95;;;2.75;;
8831;SDS011;4452;50.756;4.472;2022-07-29T03:22:38;10.25;;;2.88;;
8831;SDS011;4452;50.756;4.472;2022-07-29T03:25:11;6.60;;;2.80;;
8831;SDS011;4452;50.756;4.472;2022-07-29T03:27:39;5.80;;;2.78;;
8831;SDS011;4452;50.756;4.472;2022-07-29T03:30:06;6.82;;;2.63;;
8831;SDS011;4452;50.756;4.472;2022-07-29T03:32:32;5.55;;;2.55;;
8831;SDS011;4452;50.756;4.472;2022-07-29T03:34:58;7.35;;;2.50;;
8831;SDS011;4452;50.756;4.472;2022-07-29T03:37:24;3.65;;;2.50;;
8831;SDS011;4452;50.756;4.472;2022-07-29T03:39:50;5.95;;;2.60;;
8831;SDS011;4452;50.756;4.472;2022-07-29T03:42:17;3.42;;;2.65;;
8831;SDS011;4452;50.756;4.472;2022-07-29T03:44:45;4.10;;;2.58;;
8831;SDS011;4452;50.756;4.472;2022-07-29T03:47:13;6.00;;;2.90;;
8831;SDS011;4452;50.756;4.472;2022-07-29T03:49:40;4.50;;;2.85;;
8831;SDS011;4452;50.756;4.472;2022-07-29T03:52:07;12.07;;;2.85;;
8831;SDS011;4452;50.756;4.472;2022-07-29T03:54:33;4.00;;;2.75;;
8831;SDS011;4452;50.756;4.472;2022-07-29T03:56:59;4.50;;;2.92;;
8831;SDS011;4452;50.756;4.472;2022-07-29T03:59:30;3.67;;;2.55;;
8831;SDS011;4452;50.756;4.472;2022-07-29T04:01:59;5.90;;;2.70;;
8831;SDS011;4452;50.756;4.472;2022-07-29T04:04:32;3.97;;;2.60;;
8831;SDS011;4452;50.756;4.472;2022-07-29T04:06:59;6.75;;;2.55;;
8831;SDS011;4452;50.756;4.472;2022-07-29T04:09:25;8.82;;;3.28;;
8831;SDS011;4452;50.756;4.472;2022-07-29T04:11:51;6.85;;;2.67;;
8831;SDS011;4452;50.756;4.472;2022-07-29T04:14:17;3.05;;;2.47;;
8831;SDS011;4452;50.756;4.472;2022-07-29T04:16:43;4.07;;;2.80;;
8831;SDS011;4452;50.756;4.472;2022-07-29T04:19:09;5.78;;;2.92;;
8831;SDS011;4452;50.756;4.472;2022-07-29T04:21:38;7.35;;;2.70;;
8831;SDS011;4452;50.756;4.472;2022-07-29T04:24:05;4.70;;;2.75;;
8831;SDS011;4452;50.756;4.472;2022-07-29T04:26:32;8.30;;;2.97;;
8831;SDS011;4452;50.756;4.472;2022-07-29T04:28:57;2.85;;;2.50;;
8831;SDS011;4452;50.756;4.472;2022-07-29T04:31:23;6.63;;;2.80;;
8831;SDS011;4452;50.756;4.472;2022-07-29T04:33:49;5.47;;;3.05;;
8831;SDS011;4452;50.756;4.472;2022-07-29T04:36:14;6.70;;;3.08;;
8831;SDS011;4452;50.756;4.472;2022-07-29T04:38:40;5.07;;;2.80;;
8831;SDS011;4452;50.756;4.472;2022-07-29T04:41:06;5.90;;;2.95;;
8831;SDS011;4452;50.756;4.472;2022-07-29T04:43:33;4.30;;;2.83;;
8831;SDS011;4452;50.756;4.472;2022-07-29T04:46:02;3.63;;;2.72;;
8831;SDS011;4452;50.756;4.472;2022-07-29T04:48:28;6.65;;;3.20;;
8831;SDS011;4452;50.756;4.472;2022-07-29T04:50:56;4.85;;;3.10;;
8831;SDS011;4452;50.756;4.472;2022-07-29T04:53:21;4.50;;;2.85;;
8831;SDS011;4452;50.756;4.472;2022-07-29T04:55:47;5.30;;;2.97;;
8831;SDS011;4452;50.756;4.472;2022-07-29T04:58:13;3.55;;;3.05;;
8831;SDS011;4452;50.756;4.472;2022-07-29T05:00:39;8.75;;;3.50;;
8831;SDS011;4452;50.756;4.472;2022-07-29T05:03:05;6.35;;;3.83;;
8831;SDS011;4452;50.756;4.472;2022-07-29T05:05:31;4.65;;;3.17;;
8831;SDS011;4452;50.756;4.472;2022-07-29T05:07:56;5.97;;;3.30;;
8831;SDS011;4452;50.756;4.472;2022-07-29T05:10:22;4.60;;;3.17;;
8831;SDS011;4452;50.756;4.472;2022-07-29T05:12:48;6.22;;;3.47;;
8831;SDS011;4452;50.756;4.472;2022-07-29T05:15:13;6.85;;;3.20;;
8831;SDS011;4452;50.756;4.472;2022-07-29T05:17:39;7.78;;;3.60;;
8831;SDS011;4452;50.756;4.472;2022-07-29T05:20:06;5.43;;;3.45;;
8831;SDS011;4452;50.756;4.472;2022-07-29T05:22:32;9.20;;;3.83;;
8831;SDS011;4452;50.756;4.472;2022-07-29T05:24:58;9.00;;;3.65;;
8831;SDS011;4452;50.756;4.472;2022-07-29T05:27:23;5.18;;;3.65;;
8831;SDS011;4452;50.756;4.472;2022-07-29T05:29:50;7.22;;;3.75;;
8831;SDS011;4452;50.756;4.472;2022-07-29T05:32:16;6.72;;;3.58;;
8831;SDS011;4452;50.756;4.472;2022-07-29T05:34:41;11.48;;;3.75;;
8831;SDS011;4452;50.756;4.472;2022-07-29T05:37:07;8.15;;;3.85;;
8831;SDS011;4452;50.756;4.472;2022-07-29T05:39:33;7.78;;;3.60;;
8831;SDS011;4452;50.756;4.472;2022-07-29T05:41:58;6.65;;;3.30;;
8831;SDS011;4452;50.756;4.472;2022-07-29T05:44:24;10.65;;;3.75;;
8831;SDS011;4452;50.756;4.472;2022-07-29T05:46:50;7.80;;;3.67;;
8831;SDS011;4452;50.756;4.472;2022-07-29T05:49:15;5.63;;;3.70;;
8831;SDS011;4452;50.756;4.472;2022-07-29T05:51:41;7.03;;;3.90;;
8831;SDS011;4452;50.756;4.472;2022-07-29T05:54:06;11.55;;;3.85;;
8831;SDS011;4452;50.756;4.472;2022-07-29T05:56:32;7.95;;;3.72;;
8831;SDS011;4452;50.756;4.472;2022-07-29T05:58:58;6.22;;;3.88;;
8831;SDS011;4452;50.756;4.472;2022-07-29T06:01:24;14.82;;;3.80;;
8831;SDS011;4452;50.756;4.472;2022-07-29T06:03:49;11.10;;;3.90;;
8831;SDS011;4452;50.756;4.472;2022-07-29T06:06:15;10.90;;;4.00;;
8831;SDS011;4452;50.756;4.472;2022-07-29T06:08:41;8.32;;;3.97;;
8831;SDS011;4452;50.756;4.472;2022-07-29T06:11:07;6.28;;;3.90;;
8831;SDS011;4452;50.756;4.472;2022-07-29T06:13:33;8.52;;;3.70;;
8831;SDS011;4452;50.756;4.472;2022-07-29T06:15:59;5.43;;;3.70;;
8831;SDS011;4452;50.756;4.472;2022-07-29T06:18:25;7.30;;;3.80;;
8831;SDS011;4452;50.756;4.472;2022-07-29T06:20:51;8.82;;;3.85;;
8831;SDS011;4452;50.756;4.472;2022-07-29T06:23:17;6.15;;;3.72;;
8831;SDS011;4452;50.756;4.472;2022-07-29T06:25:44;10.95;;;4.03;;
8831;SDS011;4452;50.756;4.472;2022-07-29T06:28:10;9.52;;;4.05;;
8831;SDS011;4452;50.756;4.472;2022-07-29T06:30:36;5.05;;;3.95;;
8831;SDS011;4452;50.756;4.472;2022-07-29T06:33:02;10.02;;;3.72;;
8831;SDS011;4452;50.756;4.472;2022-07-29T06:35:28;10.75;;;3.90;;
8831;SDS011;4452;50.756;4.472;2022-07-29T06:37:54;6.22;;;3.80;;
8831;SDS011;4452;50.756;4.472;2022-07-29T06:40:20;8.05;;;4.20;;
8831;SDS011;4452;50.756;4.472;2022-07-29T06:43:04;12.13;;;4.10;;
8831;SDS011;4452;50.756;4.472;2022-07-29T06:45:30;5.22;;;3.60;;
8831;SDS011;4452;50.756;4.472;2022-07-29T06:47:58;7.30;;;4.03;;
8831;SDS011;4452;50.756;4.472;2022-07-29T06:50:24;6.90;;;3.85;;
8831;SDS011;4452;50.756;4.472;2022-07-29T06:52:50;5.18;;;3.70;;
8831;SDS011;4452;50.756;4.472;2022-07-29T06:55:16;6.68;;;3.47;;
8831;SDS011;4452;50.756;4.472;2022-07-29T06:57:44;8.77;;;3.65;;
8831;SDS011;4452;50.756;4.472;2022-07-29T07:00:10;7.18;;;3.90;;
8831;SDS011;4452;50.756;4.472;2022-07-29T07:02:37;5.13;;;3.58;;
8831;SDS011;4452;50.756;4.472;2022-07-29T07:05:02;5.55;;;3.80;;
8831;SDS011;4452;50.756;4.472;2022-07-29T07:07:30;7.93;;;4.05;;
8831;SDS011;4452;50.756;4.472;2022-07-29T07:09:55;6.75;;;3.70;;
8831;SDS011;4452;50.756;4.472;2022-07-29T07:12:21;9.23;;;4.00;;
8831;SDS011;4452;50.756;4.472;2022-07-29T07:14:47;6.70;;;3.70;;
8831;SDS011;4452;50.756;4.472;2022-07-29T07:17:13;8.25;;;3.45;;
8831;SDS011;4452;50.756;4.472;2022-07-29T07:19:38;8.98;;;3.40;;
8831;SDS011;4452;50.756;4.472;2022-07-29T07:22:04;4.25;;;3.25;;
8831;SDS011;4452;50.756;4.472;2022-07-29T07:24:30;5.93;;;3.60;;
8831;SDS011;4452;50.756;4.472;2022-07-29T07:26:55;5.25;;;3.70;;
8831;SDS011;4452;50.756;4.472;2022-07-29T07:29:21;7.75;;;3.47;;
8831;SDS011;4452;50.756;4.472;2022-07-29T07:31:47;4.47;;;3.22;;
8831;SDS011;4452;50.756;4.472;2022-07-29T07:34:12;7.45;;;3.33;;
8831;SDS011;4452;50.756;4.472;2022-07-29T07:36:38;8.50;;;3.28;;
8831;SDS011;4452;50.756;4.472;2022-07-29T07:39:03;3.55;;;3.15;;
8831;SDS011;4452;50.756;4.472;2022-07-29T07:41:30;10.13;;;3.53;;
8831;SDS011;4452;50.756;4.472;2022-07-29T07:43:56;10.13;;;3.20;;
8831;SDS011;4452;50.756;4.472;2022-07-29T07:46:21;4.40;;;3.17;;
8831;SDS011;4452;50.756;4.472;2022-07-29T07:48:47;5.13;;;2.97;;
8831;SDS011;4452;50.756;4.472;2022-07-29T07:51:13;6.13;;;2.95;;
8831;SDS011;4452;50.756;4.472;2022-07-29T07:53:39;9.55;;;3.25;;
8831;SDS011;4452;50.756;4.472;2022-07-29T07:56:05;5.40;;;3.17;;
8831;SDS011;4452;50.756;4.472;2022-07-29T07:58:32;4.18;;;2.95;;
8831;SDS011;4452;50.756;4.472;2022-07-29T08:00:59;4.50;;;3.13;;
8831;SDS011;4452;50.756;4.472;2022-07-29T08:03:25;6.80;;;3.40;;
8831;SDS011;4452;50.756;4.472;2022-07-29T08:05:50;7.85;;;3.53;;
8831;SDS011;4452;50.756;4.472;2022-07-29T08:08:16;5.65;;;3.25;;
8831;SDS011;4452;50.756;4.472;2022-07-29T08:10:42;5.32;;;3.30;;
8831;SDS011;4452;50.756;4.472;2022-07-29T08:13:17;6.78;;;2.95;;
8831;SDS011;4452;50.756;4.472;2022-07-29T08:15:44;4.35;;;3.42;;
8831;SDS011;4452;50.756;4.472;2022-07-29T08:18:11;4.82;;;3.10;;
8831;SDS011;4452;50.756;4.472;2022-07-29T08:20:37;5.30;;;3.10;;
8831;SDS011;4452;50.756;4.472;2022-07-29T08:23:04;8.13;;;3.10;;
8831;SDS011;4452;50.756;4.472;2022-07-29T08:25:33;6.75;;;3.22;;
8831;SDS011;4452;50.756;4.472;2022-07-29T08:28:00;4.65;;;3.25;;
8831;SDS011;4452;50.756;4.472;2022-07-29T08:30:26;7.53;;;3.03;;
8831;SDS011;4452;50.756;4.472;2022-07-29T08:32:52;6.45;;;3.13;;
8831;SDS011;4452;50.756;4.472;2022-07-29T08:35:18;7.30;;;2.83;;
8831;SDS011;4452;50.756;4.472;2022-07-29T08:37:44;5.72;;;3.10;;
8831;SDS011;4452;50.756;4.472;2022-07-29T08:40:11;8.25;;;3.20;;
8831;SDS011;4452;50.756;4.472;2022-07-29T08:42:36;5.35;;;3.00;;
8831;SDS011;4452;50.756;4.472;2022-07-29T08:45:03;6.03;;;2.92;;
8831;SDS011;4452;50.756;4.472;2022-07-29T08:47:29;7.63;;;2.95;;
8831;SDS011;4452;50.756;4.472;2022-07-29T08:49:55;4.55;;;2.50;;
8831;SDS011;4452;50.756;4.472;2022-07-29T08:52:21;5.68;;;2.50;;
8831;SDS011;4452;50.756;4.472;2022-07-29T08:54:50;7.65;;;2.92;;
8831;SDS011;4452;50.756;4.472;2022-07-29T08:57:17;5.32;;;2.78;;
8831;SDS011;4452;50.756;4.472;2022-07-29T08:59:44;5.70;;;2.58;;
8831;SDS011;4452;50.756;4.472;2022-07-29T09:02:21;7.80;;;2.60;;
8831;SDS011;4452;50.756;4.472;2022-07-29T09:04:48;5.47;;;2.50;;
8831;SDS011;4452;50.756;4.472;2022-07-29T09:07:14;2.92;;;2.63;;
8831;SDS011;4452;50.756;4.472;2022-07-29T09:09:41;5.93;;;2.60;;
8831;SDS011;4452;50.756;4.472;2022-07-29T09:12:10;6.90;;;2.58;;
8831;SDS011;4452;50.756;4.472;2022-07-29T09:14:39;4.53;;;2.28;;
8831;SDS011;4452;50.756;4.472;2022-07-29T09:17:05;5.07;;;2.10;;
8831;SDS011;4452;50.756;4.472;2022-07-29T09:19:32;3.67;;;1.92;;
8831;SDS011;4452;50.756;4.472;2022-07-29T09:22:00;4.10;;;2.20;;
8831;SDS011;4452;50.756;4.472;2022-07-29T09:24:43;6.00;;;2.20;;
8831;SDS011;4452;50.756;4.472;2022-07-29T09:29:45;5.95;;;2.25;;
8831;SDS011;4452;50.756;4.472;2022-07-29T09:32:11;2.05;;;1.88;;
8831;SDS011;4452;50.756;4.472;2022-07-29T09:34:37;8.10;;;2.20;;
8831;SDS011;4452;50.756;4.472;2022-07-29T09:37:03;3.47;;;2.03;;
8831;SDS011;4452;50.756;4.472;2022-07-29T09:39:31;10.20;;;2.33;;
8831;SDS011;4452;50.756;4.472;2022-07-29T09:41:58;6.38;;;2.03;;
8831;SDS011;4452;50.756;4.472;2022-07-29T09:44:27;3.40;;;2.10;;
8831;SDS011;4452;50.756;4.472;2022-07-29T09:49:43;5.28;;;2.17;;
8831;SDS011;4452;50.756;4.472;2022-07-29T09:52:28;9.80;;;2.40;;
8831;SDS011;4452;50.756;4.472;2022-07-29T09:55:08;4.75;;;2.35;;
8831;SDS011;4452;50.756;4.472;2022-07-29T09:57:35;6.90;;;1.92;;
8831;SDS011;4452;50.756;4.472;2022-07-29T10:00:03;5.75;;;2.25;;
8831;SDS011;4452;50.756;4.472;2022-07-29T10:02:40;5.00;;;2.10;;
8831;SDS011;4452;50.756;4.472;2022-07-29T10:05:25;4.63;;;2.30;;
8831;SDS011;4452;50.756;4.472;2022-07-29T10:07:56;6.32;;;1.92;;
8831;SDS011;4452;50.756;4.472;2022-07-29T10:10:27;3.25;;;2.20;;
8831;SDS011;4452;50.756;4.472;2022-07-29T10:12:57;11.63;;;2.40;;
8831;SDS011;4452;50.756;4.472;2022-07-29T10:15:28;6.78;;;2.20;;
8831;SDS011;4452;50.756;4.472;2022-07-29T10:17:57;4.53;;;2.08;;
8831;SDS011;4452;50.756;4.472;2022-07-29T10:20:24;5.78;;;1.95;;
8831;SDS011;4452;50.756;4.472;2022-07-29T10:22:51;4.95;;;2.00;;
8831;SDS011;4452;50.756;4.472;2022-07-29T10:25:17;5.15;;;2.10;;
8831;SDS011;4452;50.756;4.472;2022-07-29T10:27:44;8.05;;;2.10;;
8831;SDS011;4452;50.756;4.472;2022-07-29T10:30:13;8.93;;;2.25;;
8831;SDS011;4452;50.756;4.472;2022-07-29T10:43:51;4.13;;;2.20;;
8831;SDS011;4452;50.756;4.472;2022-07-29T10:46:23;3.60;;;2.20;;
8831;SDS011;4452;50.756;4.472;2022-07-29T10:49:06;6.53;;;1.90;;
8831;SDS011;4452;50.756;4.472;2022-07-29T10:59:39;4.05;;;2.20;;
8831;SDS011;4452;50.756;4.472;2022-07-29T11:05:05;7.50;;;2.10;;
8831;SDS011;4452;50.756;4.472;2022-07-29T11:07:33;6.82;;;2.33;;
8831;SDS011;4452;50.756;4.472;2022-07-29T11:15:09;6.70;;;2.35;;
8831;SDS011;4452;50.756;4.472;2022-07-29T11:20:35;7.72;;;2.67;;
8831;SDS011;4452;50.756;4.472;2022-07-29T11:26:16;3.28;;;2.30;;
8831;SDS011;4452;50.756;4.472;2022-07-29T11:47:41;6.65;;;2.92;;
8831;SDS011;4452;50.756;4.472;2022-07-29T11:50:11;7.80;;;2.75;;
8831;SDS011;4452;50.756;4.472;2022-07-29T11:52:42;3.97;;;2.53;;
8831;SDS011;4452;50.756;4.472;2022-07-29T11:57:54;5.53;;;2.78;;
8831;SDS011;4452;50.756;4.472;2022-07-29T12:02:49;6.00;;;2.50;;
8831;SDS011;4452;50.756;4.472;2022-07-29T12:05:15;8.10;;;3.10;;
8831;SDS011;4452;50.756;4.472;2022-07-29T12:07:41;6.28;;;2.30;;
8831;SDS011;4452;50.756;4.472;2022-07-29T12:10:07;5.00;;;3.10;;
8831;SDS011;4452;50.756;4.472;2022-07-29T12:12:34;4.90;;;2.65;;
8831;SDS011;4452;50.756;4.472;2022-07-29T12:15:13;5.05;;;2.40;;
8831;SDS011;4452;50.756;4.472;2022-07-29T12:17:40;6.22;;;2.60;;
8831;SDS011;4452;50.756;4.472;2022-07-29T12:20:06;10.00;;;2.88;;
8831;SDS011;4452;50.756;4.472;2022-07-29T12:22:36;7.13;;;2.80;;
8831;SDS011;4452;50.756;4.472;2022-07-29T12:27:32;3.67;;;2.75;;
8831;SDS011;4452;50.756;4.472;2022-07-29T12:29:59;3.42;;;2.88;;
8831;SDS011;4452;50.756;4.472;2022-07-29T12:32:34;9.43;;;2.70;;
8831;SDS011;4452;50.756;4.472;2022-07-29T12:35:08;4.50;;;2.97;;
8831;SDS011;4452;50.756;4.472;2022-07-29T12:37:37;7.25;;;3.08;;
8831;SDS011;4452;50.756;4.472;2022-07-29T12:40:04;6.75;;;3.10;;
8831;SDS011;4452;50.756;4.472;2022-07-29T12:42:31;6.47;;;2.95;;
8831;SDS011;4452;50.756;4.472;2022-07-29T12:44:57;6.88;;;3.40;;
8831;SDS011;4452;50.756;4.472;2022-07-29T12:47:23;4.93;;;2.72;;
8831;SDS011;4452;50.756;4.472;2022-07-29T12:49:49;3.45;;;3.08;;
8831;SDS011;4452;50.756;4.472;2022-07-29T12:52:31;8.65;;;3.38;;
8831;SDS011;4452;50.756;4.472;2022-07-29T12:54:58;7.43;;;3.70;;
8831;SDS011;4452;50.756;4.472;2022-07-29T12:57:26;11.55;;;3.72;;
8831;SDS011;4452;50.756;4.472;2022-07-29T13:00:03;8.10;;;3.85;;
8831;SDS011;4452;50.756;4.472;2022-07-29T13:02:39;11.15;;;4.05;;
8831;SDS011;4452;50.756;4.472;2022-07-29T13:05:06;7.50;;;3.53;;
8831;SDS011;4452;50.756;4.472;2022-07-29T13:07:34;10.80;;;3.45;;
8831;SDS011;4452;50.756;4.472;2022-07-29T13:10:17;6.10;;;3.75;;
8831;SDS011;4452;50.756;4.472;2022-07-29T13:15:34;8.70;;;3.90;;
8831;SDS011;4452;50.756;4.472;2022-07-29T13:18:01;5.53;;;4.25;;
8831;SDS011;4452;50.756;4.472;2022-07-29T13:20:29;9.48;;;3.65;;
8831;SDS011;4452;50.756;4.472;2022-07-29T13:22:55;5.57;;;2.97;;
8831;SDS011;4452;50.756;4.472;2022-07-29T13:25:29;8.43;;;3.03;;
8831;SDS011;4452;50.756;4.472;2022-07-29T13:27:56;5.78;;;3.20;;
8831;SDS011;4452;50.756;4.472;2022-07-29T13:30:23;4.20;;;3.42;;
8831;SDS011;4452;50.756;4.472;2022-07-29T13:32:49;4.32;;;3.20;;
8831;SDS011;4452;50.756;4.472;2022-07-29T13:35:16;7.43;;;4.00;;
8831;SDS011;4452;50.756;4.472;2022-07-29T13:37:43;5.40;;;3.45;;
8831;SDS011;4452;50.756;4.472;2022-07-29T13:40:09;7.70;;;3.50;;
8831;SDS011;4452;50.756;4.472;2022-07-29T13:42:36;5.57;;;3.65;;
8831;SDS011;4452;50.756;4.472;2022-07-29T13:45:02;8.85;;;3.50;;
8831;SDS011;4452;50.756;4.472;2022-07-29T13:47:29;7.22;;;3.60;;
8831;SDS011;4452;50.756;4.472;2022-07-29T13:49:55;8.90;;;3.58;;
8831;SDS011;4452;50.756;4.472;2022-07-29T13:52:21;6.82;;;3.33;;
8831;SDS011;4452;50.756;4.472;2022-07-29T13:54:47;6.68;;;2.95;;
8831;SDS011;4452;50.756;4.472;2022-07-29T13:57:13;18.27;;;3.47;;
8831;SDS011;4452;50.756;4.472;2022-07-29T13:59:40;5.50;;;2.75;;
8831;SDS011;4452;50.756;4.472;2022-07-29T14:02:07;9.98;;;2.80;;
8831;SDS011;4452;50.756;4.472;2022-07-29T14:04:34;4.78;;;2.83;;
8831;SDS011;4452;50.756;4.472;2022-07-29T14:07:00;5.55;;;2.80;;
8831;SDS011;4452;50.756;4.472;2022-07-29T14:09:26;4.47;;;2.95;;
8831;SDS011;4452;50.756;4.472;2022-07-29T14:11:52;7.20;;;2.47;;
8831;SDS011;4452;50.756;4.472;2022-07-29T14:14:18;9.88;;;3.00;;
8831;SDS011;4452;50.756;4.472;2022-07-29T14:16:44;5.05;;;2.90;;
8831;SDS011;4452;50.756;4.472;2022-07-29T14:19:10;9.68;;;2.67;;
8831;SDS011;4452;50.756;4.472;2022-07-29T14:21:36;4.20;;;2.72;;
8831;SDS011;4452;50.756;4.472;2022-07-29T14:24:02;7.00;;;2.80;;
8831;SDS011;4452;50.756;4.472;2022-07-29T14:26:28;7.10;;;3.20;;
8831;SDS011;4452;50.756;4.472;2022-07-29T14:28:54;6.35;;;2.25;;
8831;SDS011;4452;50.756;4.472;2022-07-29T14:31:20;6.07;;;2.40;;
8831;SDS011;4452;50.756;4.472;2022-07-29T14:33:45;6.07;;;2.38;;
8831;SDS011;4452;50.756;4.472;2022-07-29T14:36:11;5.45;;;2.80;;
8831;SDS011;4452;50.756;4.472;2022-07-29T14:38:37;2.88;;;2.30;;
8831;SDS011;4452;50.756;4.472;2022-07-29T14:41:03;10.00;;;2.50;;
8831;SDS011;4452;50.756;4.472;2022-07-29T14:43:29;4.80;;;2.60;;
8831;SDS011;4452;50.756;4.472;2022-07-29T14:45:54;7.45;;;2.30;;
8831;SDS011;4452;50.756;4.472;2022-07-29T14:48:20;3.92;;;2.60;;
8831;SDS011;4452;50.756;4.472;2022-07-29T14:50:47;6.05;;;2.30;;
8831;SDS011;4452;50.756;4.472;2022-07-29T14:53:12;5.20;;;2.15;;
8831;SDS011;4452;50.756;4.472;2022-07-29T14:55:39;5.03;;;2.10;;
8831;SDS011;4452;50.756;4.472;2022-07-29T14:58:05;7.18;;;2.25;;
8831;SDS011;4452;50.756;4.472;2022-07-29T15:00:31;6.93;;;2.20;;
8831;SDS011;4452;50.756;4.472;2022-07-29T15:02:59;4.95;;;2.35;;
8831;SDS011;4452;50.756;4.472;2022-07-29T15:05:25;4.32;;;2.10;;
8831;SDS011;4452;50.756;4.472;2022-07-29T15:07:51;2.75;;;1.90;;
8831;SDS011;4452;50.756;4.472;2022-07-29T15:10:17;4.50;;;1.85;;
8831;SDS011;4452;50.756;4.472;2022-07-29T15:12:42;4.97;;;2.38;;
8831;SDS011;4452;50.756;4.472;2022-07-29T15:15:08;3.65;;;2.00;;
8831;SDS011;4452;50.756;4.472;2022-07-29T15:17:34;4.43;;;2.00;;
8831;SDS011;4452;50.756;4.472;2022-07-29T15:20:00;6.43;;;2.10;;
8831;SDS011;4452;50.756;4.472;2022-07-29T15:22:26;5.35;;;2.30;;
8831;SDS011;4452;50.756;4.472;2022-07-29T15:24:51;6.18;;;2.40;;
8831;SDS011;4452;50.756;4.472;2022-07-29T15:27:17;5.85;;;2.30;;
8831;SDS011;4452;50.756;4.472;2022-07-29T15:29:43;3.38;;;2.40;;
8831;SDS011;4452;50.756;4.472;2022-07-29T15:32:09;4.72;;;2.58;;
8831;SDS011;4452;50.756;4.472;2022-07-29T15:34:35;3.75;;;2.10;;
8831;SDS011;4452;50.756;4.472;2022-07-29T15:37:01;7.05;;;2.42;;
8831;SDS011;4452;50.756;4.472;2022-07-29T15:39:27;6.05;;;2.38;;
8831;SDS011;4452;50.756;4.472;2022-07-29T15:41:52;10.27;;;2.95;;
8831;SDS011;4452;50.756;4.472;2022-07-29T15:44:18;6.70;;;2.22;;
8831;SDS011;4452;50.756;4.472;2022-07-29T15:46:45;4.28;;;2.50;;
8831;SDS011;4452;50.756;4.472;2022-07-29T15:49:32;7.30;;;2.30;;
8831;SDS011;4452;50.756;4.472;2022-07-29T15:51:59;6.53;;;2.22;;
8831;SDS011;4452;50.756;4.472;2022-07-29T15:54:34;3.25;;;2.47;;
8831;SDS011;4452;50.756;4.472;2022-07-29T15:57:00;3.92;;;2.40;;
8831;SDS011;4452;50.756;4.472;2022-07-29T15:59:27;5.00;;;2.42;;
8831;SDS011;4452;50.756;4.472;2022-07-29T16:01:53;4.70;;;2.50;;
8831;SDS011;4452;50.756;4.472;2022-07-29T16:04:20;7.13;;;2.70;;
8831;SDS011;4452;50.756;4.472;2022-07-29T16:06:46;7.95;;;2.65;;
8831;SDS011;4452;50.756;4.472;2022-07-29T16:09:12;6.22;;;2.50;;
8831;SDS011;4452;50.756;4.472;2022-07-29T16:11:39;10.45;;;2.97;;
8831;SDS011;4452;50.756;4.472;2022-07-29T16:14:05;8.18;;;2.50;;
8831;SDS011;4452;50.756;4.472;2022-07-29T16:16:31;3.38;;;2.70;;
8831;SDS011;4452;50.756;4.472;2022-07-29T16:18:57;3.83;;;2.40;;
8831;SDS011;4452;50.756;4.472;2022-07-29T16:21:23;4.07;;;2.58;;
8831;SDS011;4452;50.756;4.472;2022-07-29T16:23:49;7.35;;;2.47;;
8831;SDS011;4452;50.756;4.472;2022-07-29T16:26:15;6.55;;;2.58;;
8831;SDS011;4452;50.756;4.472;2022-07-29T16:28:41;7.07;;;2.72;;
8831;SDS011;4452;50.756;4.472;2022-07-29T16:31:07;7.85;;;2.97;;
8831;SDS011;4452;50.756;4.472;2022-07-29T16:33:33;3.80;;;2.70;;
8831;SDS011;4452;50.756;4.472;2022-07-29T16:35:59;5.90;;;2.75;;
8831;SDS011;4452;50.756;4.472;2022-07-29T16:38:24;5.03;;;2.60;;
8831;SDS011;4452;50.756;4.472;2022-07-29T16:40:50;5.68;;;2.67;;
8831;SDS011;4452;50.756;4.472;2022-07-29T16:43:16;5.53;;;2.78;;
8831;SDS011;4452;50.756;4.472;2022-07-29T16:45:42;5.82;;;2.70;;
8831;SDS011;4452;50.756;4.472;2022-07-29T16:48:07;6.78;;;2.72;;